Currently 68°F in Riverside (Presidential Park), California, USA
68°F
74°F / 67°F
calm
0.00"
Sunday, August 25, 2019 7:16 AM PDT

Riverside (Presidential Park), California Weather Summary
Last 36 Hours

Temperature Winds Hourly Humidity Dewpoint
Time Report Norm Report Norm Max Gusts Precip. Rpt. Norm Rpt. Norm Pressure
1Sun 07:16 AM  68.0°F  67°F  calm  1 mph  2 mph  0.00"  77%  74%  60°F  59°F  29.97"
Sun 07:00 AM  67.6°F  67°F  1 mph SE  1 mph  3 mph  0.00"  77%  74%  60°F  58°F  29.97"
3Sun 06:30 AM  67.3°F  67°F  calm  1 mph  3 mph  ----  76%  74%  59°F  58°F  29.96"
Sun 06:00 AM  67.7°F  67°F  2 mph SE  1 mph  3 mph  0.00"  76%  73%  59°F  58°F  29.96"
Sun 05:00 AM  68.7°F  68°F  1 mph SE  1 mph  3 mph  0.00"  74%  72%  60°F  58°F  29.95"
Sun 04:00 AM  69.6°F  68°F  calm  1 mph  3 mph  0.00"  72%  71%  60°F  58°F  29.95"
Sun 03:00 AM  70.2°F  69°F  1 mph E  1 mph  3 mph  0.00"  70%  69%  60°F  58°F  29.95"
Sun 02:00 AM  71.4°F  70°F  1 mph SE  1 mph  4 mph  0.00"  69%  67%  60°F  58°F  29.95"
Sun 01:00 AM  72.5°F  71°F  2 mph S  1 mph  7 mph  0.00"  67%  65%  60°F  58°F  29.95"
2Sun 12:05 AM  74.2°F  72°F  3 mph W  1 mph  5 mph  ----  64%  63%  61°F  58°F  29.96"
Sun 12:00 AM  74.0°F  72°F  3 mph W  1 mph  7 mph  0.00"  63%  63%  60°F  58°F  29.96"
Sat 11:00 PM  75.9°F  74°F  2 mph W  2 mph  6 mph  0.00"  59%  59%  60°F  58°F  29.96"
Sat 10:00 PM  78.1°F  76°F  3 mph W  2 mph  9 mph  0.00"  54%  55%  60°F  58°F  29.94"
Sat 09:00 PM  81.2°F  78°F  4 mph NW  3 mph  8 mph  0.00"  46%  50%  58°F  57°F  29.92"
Sat 08:00 PM  84.4°F  81°F  2 mph SW  4 mph  11 mph  0.00"  34%  45%  52°F  56°F  29.90"
Sat 07:00 PM  88.2°F  84°F  3 mph SW  6 mph  12 mph  0.00"  25%  39%  47°F  55°F  29.88"
Sat 06:00 PM  90.4°F  87°F  6 mph W  7 mph  14 mph  0.00"  26%  35%  50°F  55°F  29.87"
Sat 05:00 PM  91.8°F  89°F  8 mph SW  8 mph  18 mph  0.00"  27%  32%  52°F  54°F  29.86"
Sat 04:00 PM  92.4°F  90°F  11 mph SW  8 mph  21 mph  0.00"  29%  31%  55°F  54°F  29.86"
Sat 03:00 PM  93.2°F  91°F  5 mph W  7 mph  16 mph  0.00"  30%  31%  56°F  55°F  29.87"
Sat 02:00 PM  94.5°F  90°F  8 mph SW  6 mph  15 mph  0.00"  26%  32%  53°F  55°F  29.88"
Sat 01:00 PM  93.0°F  88°F  3 mph W  5 mph  11 mph  0.00"  30%  35%  56°F  56°F  29.89"
Sat 12:00 PM  89.1°F  84°F  4 mph NW  4 mph  8 mph  0.00"  35%  42%  57°F  58°F  29.91"
Sat 11:00 AM  84.7°F  81°F  3 mph SW  3 mph  6 mph  0.00"  45%  50%  61°F  60°F  29.92"
Sat 10:00 AM  79.9°F  77°F  calm  2 mph  4 mph  0.00"  55%  58%  62°F  60°F  29.93"
Sat 09:00 AM  74.6°F  73°F  1 mph N  2 mph  5 mph  0.00"  65%  66%  62°F  60°F  29.93"
Sat 08:00 AM  68.6°F  68°F  calm  1 mph  3 mph  0.00"  77%  73%  61°F  59°F  29.93"
Sat 07:00 AM  65.4°F  66°F  calm  1 mph  2 mph  0.00"  79%  76%  59°F  58°F  29.91"
Sat 06:00 AM  65.3°F  66°F  calm  1 mph  4 mph  0.00"  78%  75%  58°F  58°F  29.88"
Sat 05:00 AM  66.1°F  67°F  calm  1 mph  2 mph  0.00"  76%  74%  58°F  58°F  29.88"
Sat 04:00 AM  66.6°F  68°F  calm  1 mph  3 mph  0.00"  76%  72%  58°F  58°F  29.87"
Sat 03:00 AM  66.9°F  68°F  calm  1 mph  2 mph  0.00"  74%  71%  58°F  58°F  29.88"
Sat 02:00 AM  68.5°F  69°F  1 mph E  1 mph  3 mph  0.00"  73%  69%  59°F  58°F  29.89"
Sat 01:00 AM  69.4°F  70°F  1 mph SE  1 mph  3 mph  0.00"  71%  67%  59°F  58°F  29.89"
Sat 12:00 AM  70.7°F  72°F  calm  2 mph  3 mph  0.00"  68%  64%  59°F  58°F  29.88"
Fri 11:00 PM  72.6°F  73°F  1 mph S  2 mph  3 mph  0.00"  65%  60%  60°F  58°F  29.86"
Fri 10:00 PM  74.8°F  75°F  calm  2 mph  6 mph  0.00"  61%  56%  60°F  58°F  29.85"
Fri 09:00 PM  77.4°F  77°F  4 mph SW  3 mph  8 mph  0.00"  55%  51%  59°F  57°F  29.82"
Fri 08:00 PM  80.4°F  80°F  6 mph SW  4 mph  9 mph  0.00"  48%  46%  58°F  56°F  29.78"

  1. Current weather data. No green row appears if the current weather data is also the high or low for the current day.
  2. High temperature for the current day.
  3. Low temperature for the current day.

The Riverside (Presidential Park), California weather pages are a service of WeatherCurrents.
Copyright ©2019  WeatherCurrents. All rights reserved. - Submit questions and comments - Privacy Policy

This page automatically refreshes every 10 minutes.